createdAt,value
2019-06-07T00:01:09.645Z,20.99
2019-06-07T00:03:40.324Z,20.85
2019-06-07T00:06:15.098Z,20.79
2019-06-07T00:08:43.543Z,20.79
2019-06-07T00:11:17.783Z,20.76
2019-06-07T00:13:46.078Z,20.74
2019-06-07T00:16:20.847Z,20.77
2019-06-07T00:18:48.599Z,20.76
2019-06-07T00:21:20.469Z,20.73
2019-06-07T00:23:51.200Z,20.66
2019-06-07T00:26:21.691Z,20.58
2019-06-07T00:28:52.071Z,20.51
2019-06-07T00:31:24.666Z,20.41
2019-06-07T00:33:54.569Z,20.20
2019-06-07T00:36:24.980Z,20.09
2019-06-07T00:38:55.305Z,19.97
2019-06-07T00:41:25.722Z,19.90
2019-06-07T00:43:56.125Z,19.80
2019-06-07T00:46:26.620Z,19.72
2019-06-07T00:48:56.974Z,19.69
2019-06-07T00:51:27.367Z,19.54
2019-06-07T00:53:57.837Z,19.41
2019-06-07T00:56:28.405Z,19.26
2019-06-07T00:59:10.678Z,19.19
2019-06-07T01:01:30.861Z,19.19
2019-06-07T01:04:01.228Z,19.08
2019-06-07T01:06:31.624Z,18.97
2019-06-07T01:09:01.975Z,18.99
2019-06-07T01:11:32.457Z,18.99
2019-06-07T01:14:02.806Z,18.94
2019-06-07T01:16:55.329Z,18.92
2019-06-07T01:19:05.335Z,18.92
2019-06-07T01:21:35.815Z,18.88
2019-06-07T01:24:11.991Z,18.84
2019-06-07T01:26:38.324Z,18.78
2019-06-07T01:29:09.354Z,18.73
2019-06-07T01:31:39.861Z,18.60
2019-06-07T01:34:10.224Z,18.60
2019-06-07T01:36:40.601Z,18.62
2019-06-07T01:39:10.948Z,18.64
2019-06-07T01:41:41.363Z,18.54
2019-06-07T01:44:11.790Z,18.59
2019-06-07T01:46:42.186Z,18.59
2019-06-07T01:49:12.627Z,18.69
2019-06-07T01:51:43.117Z,18.77
2019-06-07T01:54:49.472Z,18.80
2019-06-07T01:56:45.635Z,18.83
2019-06-07T01:59:17.664Z,18.81
2019-06-07T02:01:48.359Z,18.73
2019-06-07T02:04:21.575Z,18.64
2019-06-07T02:06:50.897Z,18.56
2019-06-07T02:09:23.364Z,18.56
2019-06-07T02:11:53.447Z,18.56
2019-06-07T02:14:27.353Z,18.49
2019-06-07T02:16:55.984Z,18.47
2019-06-07T02:19:27.470Z,18.50
2019-06-07T02:21:58.514Z,18.44
2019-06-07T02:24:32.388Z,18.41
2019-06-07T02:27:01.032Z,18.18
2019-06-07T02:29:33.426Z,18.08
2019-06-07T02:32:04.762Z,17.99
2019-06-07T02:34:38.562Z,17.92
2019-06-07T02:37:07.226Z,17.93
2019-06-07T02:39:40.829Z,17.96
2019-06-07T02:42:09.699Z,17.99
2019-06-07T02:44:40.538Z,17.94
2019-06-07T02:47:11.160Z,17.96
2019-06-07T02:49:42.341Z,17.97
2019-06-07T02:52:13.686Z,17.97
2019-06-07T02:54:44.060Z,18.05
2019-06-07T02:57:14.646Z,18.06
2019-06-07T03:00:07.109Z,18.04
2019-06-07T03:02:17.202Z,18.09
2019-06-07T03:04:47.650Z,18.19
2019-06-07T03:07:18.058Z,18.33
2019-06-07T03:09:48.507Z,18.42
2019-06-07T03:12:19.161Z,18.45
2019-06-07T03:14:49.519Z,18.45
2019-06-07T03:17:22.636Z,18.52
2019-06-07T03:20:01.171Z,18.56
2019-06-07T03:22:35.084Z,18.69
2019-06-07T03:25:05.886Z,18.95
2019-06-07T03:27:48.295Z,18.95
2019-06-07T03:30:35.889Z,19.01
2019-06-07T03:32:47.182Z,19.03
2019-06-07T03:35:13.924Z,19.00
2019-06-07T03:37:44.405Z,19.09
2019-06-07T03:40:14.762Z,19.18
2019-06-07T03:42:45.161Z,19.26
2019-06-07T03:45:15.601Z,19.26
2019-06-07T03:47:46.036Z,19.28
2019-06-07T03:50:16.466Z,19.38
2019-06-07T03:52:46.839Z,19.38
2019-06-07T03:55:17.703Z,19.34
2019-06-07T03:58:30.143Z,19.35
2019-06-07T04:00:20.170Z,19.42
2019-06-07T04:02:50.691Z,19.42
2019-06-07T04:05:21.125Z,19.48
2019-06-07T04:07:51.548Z,19.48
2019-06-07T04:10:45.380Z,19.54
2019-06-07T04:12:54.393Z,19.65
2019-06-07T04:15:24.968Z,19.76
2019-06-07T04:18:01.728Z,19.86
2019-06-07T04:20:29.472Z,19.94
2019-06-07T04:23:00.356Z,20.10
2019-06-07T04:25:33.871Z,20.06
2019-06-07T04:28:03.123Z,20.13
2019-06-07T04:30:41.970Z,20.26
2019-06-07T04:33:13.690Z,20.42
2019-06-07T04:35:45.247Z,20.57
2019-06-07T04:38:15.955Z,20.72
2019-06-07T04:40:47.124Z,20.89
2019-06-07T04:43:17.771Z,21.04
2019-06-07T04:45:51.445Z,21.18
2019-06-07T04:48:22.307Z,21.31
2019-06-07T04:50:52.658Z,21.37
2019-06-07T04:53:23.136Z,21.42
2019-06-07T04:55:53.666Z,21.57
2019-06-07T04:58:24.083Z,21.71
2019-06-07T05:01:02.589Z,21.82
2019-06-07T05:03:26.715Z,21.78
2019-06-07T05:05:57.080Z,21.94
2019-06-07T05:08:29.983Z,21.94
2019-06-07T05:10:59.558Z,22.08
2019-06-07T05:13:31.419Z,22.20
2019-06-07T05:16:02.013Z,22.28
2019-06-07T05:18:33.679Z,22.43
2019-06-07T05:21:04.553Z,22.55
2019-06-07T05:24:05.922Z,22.64
2019-06-07T05:26:07.107Z,22.62
2019-06-07T05:28:40.626Z,22.73
2019-06-07T05:31:09.917Z,22.72
2019-06-07T05:33:41.253Z,22.84
2019-06-07T05:36:13.182Z,22.99
2019-06-07T05:38:44.903Z,23.07
2019-06-07T05:41:16.207Z,23.25
2019-06-07T05:44:00.278Z,23.35
2019-06-07T05:46:21.344Z,23.46
2019-06-07T05:48:51.780Z,23.54
2019-06-07T05:51:22.276Z,23.61
2019-06-07T05:53:52.772Z,23.67
2019-06-07T05:56:23.172Z,23.72
2019-06-07T05:58:53.570Z,23.82
2019-06-07T06:01:43.165Z,23.99
2019-06-07T06:03:56.176Z,23.94
2019-06-07T06:06:26.624Z,24.10
2019-06-07T06:09:12.997Z,24.17
2019-06-07T06:11:43.290Z,24.33
2019-06-07T06:14:07.299Z,24.33
2019-06-07T06:16:34.600Z,24.53
2019-06-07T06:19:05.152Z,24.65
2019-06-07T06:21:36.185Z,24.79
2019-06-07T06:24:06.724Z,24.69
2019-06-07T06:26:45.446Z,24.83
2019-06-07T06:29:09.199Z,25.01
2019-06-07T06:31:49.214Z,25.14
2019-06-07T06:34:11.841Z,25.27
2019-06-07T06:36:44.604Z,25.39
2019-06-07T06:39:14.484Z,25.64
2019-06-07T06:41:57.514Z,25.61
2019-06-07T06:44:17.095Z,25.57
2019-06-07T06:46:57.051Z,25.66
2019-06-07T06:49:19.939Z,25.68
2019-06-07T06:51:53.443Z,25.87
2019-06-07T06:54:40.105Z,25.95
2019-06-07T06:57:17.162Z,26.09
2019-06-07T06:59:38.837Z,26.02
2019-06-07T07:01:59.004Z,26.14
2019-06-07T07:04:29.576Z,26.24
2019-06-07T07:07:00.024Z,26.38
2019-06-07T07:09:30.655Z,26.59
2019-06-07T07:12:12.230Z,26.73
2019-06-07T07:14:33.500Z,26.80
2019-06-07T07:17:04.481Z,27.00
2019-06-07T07:19:34.922Z,27.11
2019-06-07T07:22:05.391Z,27.15
2019-06-07T07:24:36.010Z,27.21
2019-06-07T07:27:06.537Z,27.41
2019-06-07T07:29:38.039Z,27.48
2019-06-07T07:32:09.072Z,27.44
2019-06-07T07:34:41.255Z,27.50
2019-06-07T07:37:11.717Z,27.66
2019-06-07T07:39:45.252Z,27.77
2019-06-07T07:42:21.117Z,27.86
2019-06-07T07:44:48.723Z,28.06
2019-06-07T07:47:18.848Z,28.17
2019-06-07T07:49:52.998Z,28.31
2019-06-07T07:52:21.975Z,28.21
2019-06-07T07:54:56.270Z,28.17
2019-06-07T07:57:24.517Z,28.27
2019-06-07T08:00:25.290Z,28.45
2019-06-07T08:02:26.984Z,28.55
2019-06-07T08:07:30.243Z,28.80
2019-06-07T08:10:03.811Z,28.86
2019-06-07T08:12:55.623Z,28.92
2019-06-07T08:15:08.405Z,29.05
2019-06-07T08:17:38.761Z,29.00
2019-06-07T08:20:11.090Z,29.09
2019-06-07T08:22:41.564Z,29.08
2019-06-07T08:25:13.519Z,29.05
2019-06-07T08:27:43.885Z,29.05
2019-06-07T08:30:47.345Z,29.13
2019-06-07T08:32:54.604Z,29.31
2019-06-07T08:36:02.935Z,29.45
2019-06-07T08:38:25.307Z,29.51
2019-06-07T08:40:26.653Z,29.48
2019-06-07T08:43:15.073Z,29.49
2019-06-07T08:45:29.508Z,29.63
2019-06-07T08:48:05.392Z,29.74
2019-06-07T08:50:32.439Z,29.80
2019-06-07T08:53:11.460Z,29.77
2019-06-07T08:55:35.000Z,29.66
2019-06-07T08:58:08.621Z,29.84
2019-06-07T09:00:46.958Z,29.73
2019-06-07T09:03:09.758Z,29.75
2019-06-07T09:05:40.150Z,29.60
2019-06-07T09:08:29.258Z,29.67
2019-06-07T09:10:42.578Z,29.66
2019-06-07T09:13:13.069Z,29.69
2019-06-07T09:15:43.540Z,29.61
2019-06-07T09:20:49.052Z,29.53
2019-06-07T09:23:19.486Z,29.50
2019-06-07T09:26:02.584Z,29.60
2019-06-07T09:28:21.986Z,29.48
2019-06-07T09:30:52.368Z,29.67
2019-06-07T09:33:22.790Z,29.63
2019-06-07T09:35:53.244Z,29.74
2019-06-07T09:38:26.106Z,29.90
2019-06-07T09:40:57.500Z,29.82
2019-06-07T09:44:00.745Z,29.85
2019-06-07T09:46:04.651Z,29.96
2019-06-07T09:49:12.328Z,29.85
2019-06-07T09:51:17.157Z,29.56
2019-06-07T09:53:37.198Z,29.44
2019-06-07T09:56:11.726Z,29.46
2019-06-07T09:58:55.497Z,29.48
2019-06-07T10:01:13.666Z,29.55
2019-06-07T10:03:44.519Z,29.42
2019-06-07T10:06:15.017Z,29.40
2019-06-07T10:11:17.569Z,28.99
2019-06-07T10:13:47.994Z,28.89
2019-06-07T10:16:18.381Z,29.01
2019-06-07T10:18:48.867Z,29.00
2019-06-07T10:21:19.420Z,28.94
2019-06-07T10:23:49.827Z,28.93
2019-06-07T10:26:20.232Z,29.00
2019-06-07T10:28:53.438Z,28.98
2019-06-07T10:31:22.763Z,28.81
2019-06-07T10:33:54.122Z,28.82
2019-06-07T10:36:24.757Z,28.84
2019-06-07T10:38:55.126Z,28.86
2019-06-07T10:41:25.536Z,28.96
2019-06-07T10:43:55.983Z,28.86
2019-06-07T10:46:26.471Z,28.80
2019-06-07T10:48:56.923Z,28.84
2019-06-07T10:51:27.478Z,28.90
2019-06-07T10:53:57.914Z,28.89
2019-06-07T10:56:28.397Z,29.09
2019-06-07T10:58:58.826Z,29.19
2019-06-07T11:01:29.313Z,29.36
2019-06-07T11:03:59.731Z,29.27
2019-06-07T11:06:30.405Z,29.06
2019-06-07T11:09:00.757Z,28.81
2019-06-07T11:11:31.204Z,28.79
2019-06-07T11:14:01.563Z,28.80
2019-06-07T11:16:31.968Z,28.77
2019-06-07T11:19:02.387Z,28.87
2019-06-07T11:21:32.854Z,28.83
2019-06-07T11:24:03.317Z,28.81
2019-06-07T11:26:33.774Z,28.82
2019-06-07T11:29:06.669Z,28.81
2019-06-07T11:31:37.270Z,28.52
2019-06-07T11:34:08.362Z,28.63
2019-06-07T11:36:38.923Z,28.78
2019-06-07T11:39:11.091Z,28.88
2019-06-07T11:41:42.012Z,29.03
2019-06-07T11:44:12.970Z,29.14
2019-06-07T11:46:43.751Z,29.25
2019-06-07T11:49:19.831Z,29.27
2019-06-07T11:51:46.352Z,29.29
2019-06-07T11:54:20.305Z,29.49
2019-06-07T11:56:49.034Z,29.56
2019-06-07T11:59:19.635Z,29.60
2019-06-07T12:01:50.114Z,29.64
2019-06-07T12:04:32.493Z,29.58
2019-06-07T12:06:52.601Z,29.72
2019-06-07T12:09:23.035Z,29.82
2019-06-07T12:11:53.466Z,29.91
2019-06-07T12:14:23.885Z,29.75
2019-06-07T12:16:54.258Z,29.77
2019-06-07T12:19:24.646Z,29.85
2019-06-07T12:21:55.063Z,29.82
2019-06-07T12:24:25.485Z,29.86
2019-06-07T12:26:56.004Z,29.94
2019-06-07T12:29:26.338Z,30.07
2019-06-07T12:31:56.819Z,30.40
2019-06-07T12:34:27.870Z,30.84
2019-06-07T12:36:58.283Z,31.26
2019-06-07T12:39:28.723Z,31.43
2019-06-07T12:41:59.142Z,31.31
2019-06-07T12:44:29.605Z,31.45
2019-06-07T12:46:59.952Z,31.45
2019-06-07T12:49:30.575Z,31.31
2019-06-07T12:52:01.082Z,31.49
2019-06-07T12:54:31.453Z,31.68
2019-06-07T12:57:01.873Z,31.93
2019-06-07T12:59:32.275Z,32.35
2019-06-07T13:02:02.796Z,32.15
2019-06-07T13:04:33.334Z,31.90
2019-06-07T13:07:03.861Z,32.10
2019-06-07T13:09:36.124Z,32.39
2019-06-07T13:12:06.425Z,32.73
2019-06-07T13:14:36.811Z,32.83
2019-06-07T13:17:07.414Z,32.70
2019-06-07T13:19:37.910Z,32.72
2019-06-07T13:22:08.449Z,32.73
2019-06-07T13:24:38.919Z,32.64
2019-06-07T13:27:09.913Z,32.45
2019-06-07T13:29:40.426Z,32.46
2019-06-07T13:32:10.825Z,32.49
2019-06-07T13:34:41.313Z,32.31
2019-06-07T13:37:11.719Z,31.81
2019-06-07T13:39:42.090Z,31.23
2019-06-07T13:42:12.630Z,31.31
2019-06-07T13:44:43.130Z,31.88
2019-06-07T13:47:13.515Z,32.47
2019-06-07T13:49:44.025Z,32.60
2019-06-07T13:52:14.582Z,32.99
2019-06-07T13:54:45.009Z,33.42
2019-06-07T13:57:15.967Z,33.59
2019-06-07T13:59:46.487Z,33.14
2019-06-07T14:02:18.417Z,33.27
2019-06-07T14:04:49.066Z,33.63
2019-06-07T14:07:21.183Z,33.61
2019-06-07T14:09:51.764Z,33.52
2019-06-07T14:12:24.031Z,33.68
2019-06-07T14:14:54.703Z,33.78
2019-06-07T14:17:25.372Z,33.73
2019-06-07T14:19:55.852Z,34.06
2019-06-07T14:22:26.883Z,34.19
2019-06-07T14:24:57.345Z,34.48
2019-06-07T14:27:27.848Z,35.19
2019-06-07T14:29:58.303Z,35.41
2019-06-07T14:32:28.825Z,35.64
2019-06-07T14:34:59.301Z,35.74
2019-06-07T14:37:30.977Z,35.98
2019-06-07T14:40:01.578Z,35.94
2019-06-07T14:42:33.355Z,36.07
2019-06-07T14:45:06.350Z,35.75
2019-06-07T14:47:37.010Z,35.51
2019-06-07T14:50:09.592Z,35.59
2019-06-07T14:52:40.020Z,35.24
2019-06-07T14:55:10.398Z,34.82
2019-06-07T14:57:40.817Z,34.30
2019-06-07T15:00:13.510Z,33.79
2019-06-07T15:02:44.015Z,33.52
2019-06-07T15:05:15.169Z,33.04
2019-06-07T15:07:45.954Z,32.62
2019-06-07T15:10:16.470Z,32.37
2019-06-07T15:12:47.001Z,32.23
2019-06-07T15:15:17.408Z,32.74
2019-06-07T15:17:47.909Z,33.92
2019-06-07T15:20:18.279Z,34.30
2019-06-07T15:22:48.678Z,34.06
2019-06-07T15:25:20.079Z,33.58
2019-06-07T15:27:50.569Z,33.09
2019-06-07T15:30:21.211Z,32.87
2019-06-07T15:32:51.651Z,32.54
2019-06-07T15:35:22.076Z,32.38
2019-06-07T15:37:52.597Z,32.49
2019-06-07T15:40:23.225Z,32.75
2019-06-07T15:42:53.617Z,33.03
2019-06-07T15:45:23.968Z,33.05
2019-06-07T15:47:54.933Z,32.76
2019-06-07T15:50:28.624Z,32.62
2019-06-07T15:52:57.468Z,32.49
2019-06-07T15:55:27.927Z,32.39
2019-06-07T15:57:58.393Z,32.23
2019-06-07T16:00:28.791Z,31.99
2019-06-07T16:02:59.276Z,31.73
2019-06-07T16:05:31.938Z,31.63
2019-06-07T16:08:02.392Z,31.44
2019-06-07T16:10:32.763Z,31.30
2019-06-07T16:13:03.402Z,31.29
2019-06-07T16:15:34.740Z,31.21
2019-06-07T16:18:05.876Z,31.22
2019-06-07T16:20:37.358Z,31.14
2019-06-07T16:23:07.908Z,31.00
2019-06-07T16:25:38.364Z,30.80
2019-06-07T16:28:08.759Z,30.67
2019-06-07T16:30:40.507Z,30.69
2019-06-07T16:33:11.071Z,30.45
2019-06-07T16:35:41.523Z,30.39
2019-06-07T16:38:12.057Z,30.40
2019-06-07T16:40:42.590Z,30.38
2019-06-07T16:43:17.779Z,30.25
2019-06-07T16:45:45.073Z,30.18
2019-06-07T16:48:15.532Z,30.21
2019-06-07T16:50:45.907Z,30.22
2019-06-07T16:53:16.890Z,30.18
2019-06-07T16:55:47.343Z,30.22
2019-06-07T16:58:17.843Z,30.24
2019-06-07T17:00:49.566Z,30.10
2019-06-07T17:03:19.954Z,29.78
2019-06-07T17:05:50.706Z,29.55
2019-06-07T17:08:21.170Z,29.44
2019-06-07T17:10:51.610Z,29.45
2019-06-07T17:13:32.848Z,29.41
2019-06-07T17:15:54.156Z,29.27
2019-06-07T17:18:24.678Z,29.16
2019-06-07T17:20:55.073Z,29.08
2019-06-07T17:23:25.477Z,29.04
2019-06-07T17:25:55.938Z,28.95
2019-06-07T17:28:26.320Z,28.81
2019-06-07T17:30:56.818Z,28.75
2019-06-07T17:33:28.396Z,28.68
2019-06-07T17:35:58.814Z,28.53
2019-06-07T17:38:29.472Z,28.40
2019-06-07T17:41:00.130Z,28.34
2019-06-07T17:43:30.914Z,28.30
2019-06-07T17:46:01.784Z,28.24
2019-06-07T17:48:32.529Z,28.21
2019-06-07T17:51:02.905Z,28.17
2019-06-07T17:53:33.374Z,28.04
2019-06-07T17:56:03.760Z,27.99
2019-06-07T17:58:34.188Z,27.90
2019-06-07T18:01:04.629Z,27.82
2019-06-07T18:03:35.091Z,27.72
2019-06-07T18:06:05.661Z,27.67
2019-06-07T18:08:36.086Z,27.62
2019-06-07T18:11:06.548Z,27.57
2019-06-07T18:13:36.968Z,27.47
2019-06-07T18:16:07.556Z,27.44
2019-06-07T18:18:38.252Z,27.45
2019-06-07T18:21:08.702Z,27.45
2019-06-07T18:23:39.190Z,27.42
2019-06-07T18:26:09.887Z,27.42
2019-06-07T18:28:40.580Z,27.42
2019-06-07T18:31:11.009Z,27.42
2019-06-07T18:33:41.435Z,27.42
2019-06-07T18:36:11.935Z,27.42
2019-06-07T18:38:42.379Z,27.41
2019-06-07T18:41:12.787Z,27.36
2019-06-07T18:43:43.192Z,27.30
2019-06-07T18:46:13.665Z,27.25
2019-06-07T18:48:44.067Z,27.19
2019-06-07T18:51:14.639Z,27.13
2019-06-07T18:53:45.196Z,27.07
2019-06-07T18:56:16.108Z,27.02
2019-06-07T18:58:47.133Z,26.94
2019-06-07T19:01:17.650Z,26.85
2019-06-07T19:03:49.116Z,26.77
2019-06-07T19:06:20.287Z,26.66
2019-06-07T19:08:54.770Z,26.57
2019-06-07T19:11:22.990Z,26.44
2019-06-07T19:13:53.406Z,26.33
2019-06-07T19:16:24.361Z,26.19
2019-06-07T19:18:55.870Z,26.03
2019-06-07T19:21:26.424Z,25.92
2019-06-07T19:23:58.048Z,25.80
2019-06-07T19:26:28.638Z,25.71
2019-06-07T19:28:59.094Z,25.59
2019-06-07T19:31:29.510Z,25.46
2019-06-07T19:34:01.271Z,25.36
2019-06-07T19:36:31.902Z,25.26
2019-06-07T19:39:02.404Z,25.16
2019-06-07T19:41:32.857Z,25.00
2019-06-07T19:44:03.316Z,24.92
2019-06-07T19:46:33.688Z,24.78
2019-06-07T19:49:04.270Z,24.68
2019-06-07T19:51:34.693Z,24.60
2019-06-07T19:54:05.201Z,24.56
2019-06-07T19:56:35.663Z,24.59
2019-06-07T19:59:06.095Z,24.59
2019-06-07T20:01:36.621Z,24.54
2019-06-07T20:04:07.133Z,24.52
2019-06-07T20:06:37.520Z,24.41
2019-06-07T20:09:08.392Z,24.33
2019-06-07T20:11:38.868Z,24.27
2019-06-07T20:14:09.363Z,24.20
2019-06-07T20:16:39.870Z,24.14
2019-06-07T20:19:10.330Z,24.02
2019-06-07T20:21:40.822Z,23.93
2019-06-07T20:24:24.808Z,23.89
2019-06-07T20:26:43.475Z,23.84
2019-06-07T20:29:25.338Z,23.78
2019-06-07T20:31:46.197Z,23.78
2019-06-07T20:34:16.625Z,23.77
2019-06-07T20:36:47.133Z,23.72
2019-06-07T20:39:18.147Z,23.73
2019-06-07T20:41:48.600Z,23.75
2019-06-07T20:44:19.285Z,23.75
2019-06-07T20:46:49.754Z,23.73
2019-06-07T20:49:20.164Z,23.69
2019-06-07T20:51:50.520Z,23.65
2019-06-07T20:54:20.964Z,23.60
2019-06-07T20:56:51.351Z,23.40
2019-06-07T20:59:22.553Z,23.21
2019-06-07T21:01:52.938Z,23.05
2019-06-07T21:04:23.427Z,23.02
2019-06-07T21:06:53.890Z,23.02
2019-06-07T21:09:24.302Z,23.03
2019-06-07T21:11:55.169Z,23.09
2019-06-07T21:14:25.773Z,23.09
2019-06-07T21:16:56.168Z,23.11
2019-06-07T21:19:26.680Z,23.08
2019-06-07T21:21:57.154Z,22.99
2019-06-07T21:24:27.636Z,22.89
2019-06-07T21:26:58.021Z,22.80
2019-06-07T21:29:28.521Z,22.70
2019-06-07T21:31:58.897Z,22.59
2019-06-07T21:34:29.389Z,22.47
2019-06-07T21:37:01.685Z,22.32
2019-06-07T21:39:32.476Z,22.22
2019-06-07T21:42:04.222Z,22.21
2019-06-07T21:44:34.723Z,22.24
2019-06-07T21:47:06.377Z,22.26
2019-06-07T21:49:36.954Z,22.24
2019-06-07T21:52:08.674Z,22.17
2019-06-07T21:54:39.207Z,22.06
2019-06-07T21:57:09.624Z,21.92
2019-06-07T21:59:40.118Z,21.88
2019-06-07T22:02:11.629Z,21.90
2019-06-07T22:04:42.068Z,21.90
2019-06-07T22:07:13.591Z,21.92
2019-06-07T22:09:44.189Z,21.95
2019-06-07T22:12:14.633Z,21.98
2019-06-07T22:14:45.140Z,21.96
2019-06-07T22:17:15.531Z,22.01
2019-06-07T22:19:45.970Z,22.05
2019-06-07T22:22:16.342Z,22.04
2019-06-07T22:24:46.770Z,21.99
2019-06-07T22:27:17.729Z,21.92
2019-06-07T22:29:48.244Z,21.84
2019-06-07T22:32:19.169Z,21.75
2019-06-07T22:34:49.605Z,21.65
2019-06-07T22:37:23.400Z,21.53
2019-06-07T22:39:52.346Z,21.44
2019-06-07T22:42:22.755Z,21.44
2019-06-07T22:44:53.903Z,21.41
2019-06-07T22:47:24.541Z,21.40
2019-06-07T22:49:56.228Z,21.38
2019-06-07T22:52:26.679Z,21.38
2019-06-07T22:54:57.120Z,21.40
2019-06-07T22:57:29.272Z,21.47
2019-06-07T22:59:59.783Z,21.49
2019-06-07T23:02:30.234Z,21.48
2019-06-07T23:05:04.618Z,21.45
2019-06-07T23:07:32.904Z,21.38
2019-06-07T23:10:04.765Z,21.23
2019-06-07T23:12:35.203Z,21.10
2019-06-07T23:15:09.308Z,20.99
2019-06-07T23:17:39.838Z,20.93
2019-06-07T23:20:11.719Z,20.65
2019-06-07T23:22:42.340Z,20.59
2019-06-07T23:25:15.040Z,20.64
2019-06-07T23:27:44.966Z,20.70
2019-06-07T23:30:16.562Z,20.81
2019-06-07T23:32:47.244Z,20.90
2019-06-07T23:35:18.969Z,20.85
2019-06-07T23:37:49.577Z,20.60
2019-06-07T23:40:21.559Z,20.40
2019-06-07T23:42:52.159Z,20.35
2019-06-07T23:45:22.806Z,20.36
2019-06-07T23:47:53.218Z,20.40
2019-06-07T23:50:23.612Z,20.49
2019-06-07T23:52:54.080Z,20.57
2019-06-07T23:55:24.569Z,20.56
2019-06-07T23:57:55.038Z,20.53
